Time;durP1;ratioP1;P1;durP2;ratioP2;P2;SDS_P1;SDS_P2;PMS_P1;PMS_P2;Temp;Humidity;BMP_temperature;BMP_pressure;BME280_temperature;BME280_humidity;BME280_pressure;Samples;Min_cycle;Max_cycle;Signal;HPM_P1;HPM_P2
2022/01/18 07:47:32;;;;;;;12.60;5.10;;;;;;;1.79;70.93;101071.59;6234977;22;20134;-90
2022/01/18 07:50:13;;;;;;;33.67;12.48;;;;;;;1.64;70.57;101037.16;6210018;23;20021;-90
2022/01/18 07:52:44;;;;;;;57.25;19.30;;;;;;;2.03;70.33;101079.66;6237647;23;20020;-89
2022/01/18 08:07:54;;;;;;;8.65;4.03;;;;;;;2.78;68.03;101092.13;6240168;22;20064;-88
2022/01/18 08:10:30;;;;;;;10.80;3.45;;;;;;;2.76;67.29;101066.00;6194939;23;20076;-91
2022/01/18 08:13:02;;;;;;;8.30;2.80;;;;;;;2.80;66.63;101046.06;6217762;23;20012;-95
2022/01/18 08:15:41;;;;;;;11.27;2.70;;;;;;;2.83;65.90;101051.28;6166906;23;20031;-89
2022/01/18 08:18:13;;;;;;;6.50;2.38;;;;;;;3.14;65.83;101105.00;6217154;23;20024;-94
2022/01/18 08:20:44;;;;;;;5.75;2.22;;;;;;;3.22;64.98;101102.88;6141331;23;20043;-91
2022/01/18 08:23:32;;;;;;;6.22;2.33;;;;;;;3.15;64.92;101084.03;6217155;23;20047;-95
2022/01/18 08:26:04;;;;;;;9.43;2.72;;;;;;;3.09;64.41;101070.25;6217857;23;20341;-91
2022/01/18 08:28:35;;;;;;;5.65;2.67;;;;;;;3.42;64.12;101132.50;6217022;23;20520;-91
2022/01/18 08:31:09;;;;;;;7.20;2.80;;;;;;;3.36;64.16;101099.38;6215601;23;20016;-90
2022/01/18 08:33:40;;;;;;;7.97;2.88;;;;;;;3.53;64.26;101113.72;6215693;23;20020;-92
2022/01/18 08:36:14;;;;;;;7.22;2.75;;;;;;;3.72;63.76;101139.09;6217432;23;20037;-87
2022/01/18 08:38:48;;;;;;;52.42;23.42;;;;;;;3.84;63.88;101152.31;6218566;23;20025;-90
2022/01/18 08:41:28;;;;;;;8.85;3.55;;;;;;;3.89;63.42;101153.41;6217158;23;20408;-88
2022/01/18 08:43:59;;;;;;;53.17;18.48;;;;;;;3.96;63.21;101154.56;6165364;23;20040;-93
2022/01/18 08:46:31;;;;;;;50.22;18.33;;;;;;;4.12;62.97;101161.25;6228805;23;20021;-91
2022/01/18 08:49:02;;;;;;;7.63;3.40;;;;;;;3.84;62.22;101104.34;6186813;23;20013;-92
2022/01/18 08:51:34;;;;;;;22.25;7.85;;;;;;;4.23;61.76;101150.00;6186946;23;20021;-86
2022/01/18 08:54:11;;;;;;;20.40;7.30;;;;;;;4.43;61.97;101175.44;6202483;23;20028;-88
2022/01/18 08:56:42;;;;;;;9.40;3.08;;;;;;;4.37;61.55;101149.88;6186583;23;20024;-91
2022/01/18 08:59:26;;;;;;;9.57;2.85;;;;;;;4.52;60.96;101167.41;6187725;23;20323;-91
2022/01/18 09:01:57;;;;;;;10.15;3.35;;;;;;;4.48;60.65;101151.25;6161694;23;20048;-91
2022/01/18 09:04:33;;;;;;;10.45;4.47;;;;;;;4.68;61.05;101168.22;6186172;23;20017;-91
2022/01/18 09:07:07;;;;;;;7.20;2.83;;;;;;;4.61;59.35;101176.31;6188806;23;20044;-90
2022/01/18 09:10:03;;;;;;;6.00;2.17;;;;;;;4.28;58.67;101143.50;6161064;23;20024;-91
2022/01/18 09:12:36;;;;;;;6.28;3.05;;;;;;;4.48;58.41;101150.38;6161012;23;20021;-90
2022/01/18 09:15:09;;;;;;;7.68;4.25;;;;;;;4.52;57.82;101132.03;6185564;23;20017;-89
2022/01/18 09:17:41;;;;;;;7.82;1.90;;;;;;;4.91;57.46;101196.22;6160821;23;20021;-90
2022/01/18 09:20:16;;;;;;;7.47;2.05;;;;;;;4.79;57.38;101191.47;6159512;23;20013;-91
2022/01/18 09:22:50;;;;;;;8.35;2.20;;;;;;;5.08;57.36;101192.81;6135745;23;20025;-91
2022/01/18 09:25:38;;;;;;;6.45;2.60;;;;;;;4.97;56.68;101161.97;6161338;23;20467;-90
2022/01/18 09:28:12;;;;;;;5.10;2.15;;;;;;;5.19;56.38;101205.16;6160322;23;20017;-92
2022/01/18 09:30:51;;;;;;;4.93;1.60;;;;;;;4.91;55.59;101188.66;6187114;23;20019;-90
2022/01/18 09:33:21;;;;;;;7.15;2.00;;;;;;;4.66;54.97;101158.81;6189832;23;20051;-91
2022/01/18 09:35:55;;;;;;;7.50;2.15;;;;;;;5.07;55.18;101212.19;6160836;23;20013;-93
2022/01/18 09:38:25;;;;;;;10.32;3.13;;;;;;;5.11;55.08;101173.56;6187529;23;20026;-92
2022/01/18 09:41:12;;;;;;;8.30;3.53;;;;;;;5.37;54.64;101205.13;6161015;23;20039;-92
2022/01/18 09:44:07;;;;;;;6.03;2.58;;;;;;;5.24;54.32;101164.84;6189712;23;20345;-90
2022/01/18 09:46:39;;;;;;;9.32;2.40;;;;;;;5.54;53.96;101213.44;6186347;23;20024;-89
2022/01/18 09:49:25;;;;;;;8.35;2.45;;;;;;;5.09;54.10;101142.25;6198794;23;20067;-94
2022/01/18 09:51:59;;;;;;;4.28;1.23;;;;;;;5.43;53.65;101203.72;6187200;23;20064;-89
2022/01/18 09:54:30;;;;;;;11.02;2.28;;;;;;;5.25;52.93;101196.97;6189663;23;20453;-90
2022/01/18 09:57:02;;;;;;;6.03;2.30;;;;;;;4.99;53.38;101160.34;6162847;23;20024;-94
2022/01/18 09:59:32;;;;;;;8.32;2.70;;;;;;;5.35;53.46;101192.38;6191128;23;20020;-93
2022/01/18 10:02:06;;;;;;;5.43;2.00;;;;;;;5.67;52.59;101210.63;6197930;22;20520;-91
2022/01/18 10:04:42;;;;;;;6.68;1.83;;;;;;;5.74;52.82;101207.56;6190059;23;20452;-92
2022/01/18 10:07:16;;;;;;;6.05;1.80;;;;;;;5.61;52.16;101172.41;6189947;23;20020;-92
2022/01/18 10:09:59;;;;;;;3.10;1.52;;;;;;;5.68;51.83;101192.13;6215603;23;20016;-93
2022/01/18 10:12:34;;;;;;;5.72;1.88;;;;;;;5.66;52.08;101181.06;6190293;23;20075;-93
2022/01/18 10:15:19;;;;;;;6.53;1.92;;;;;;;5.79;51.62;101214.56;6191909;23;20020;-92
2022/01/18 10:18:07;;;;;;;4.93;1.50;;;;;;;5.87;50.98;101223.41;6164311;23;20384;-92
2022/01/18 10:20:52;;;;;;;3.25;1.75;;;;;;;5.74;51.38;101222.75;6164721;23;20016;-92
2022/01/18 10:23:26;;;;;;;5.68;2.15;;;;;;;5.53;51.39;101166.13;6190542;23;20020;-92
2022/01/18 10:26:21;;;;;;;5.72;1.58;;;;;;;5.88;50.73;101186.25;6189794;23;20449;-92
2022/01/18 10:29:13;;;;;;;8.05;1.92;;;;;;;5.99;50.10;101159.72;6188433;23;20025;-90
2022/01/18 10:31:58;;;;;;;6.10;1.50;;;;;;;6.03;49.78;101199.56;6215606;23;20017;-93
2022/01/18 10:35:03;;;;;;;6.60;1.63;;;;;;;6.21;50.02;101205.41;6216185;23;20458;-91
2022/01/18 10:37:43;;;;;;;4.30;2.00;;;;;;;6.59;49.57;101228.13;6216438;23;20021;-92
2022/01/18 10:40:20;;;;;;;4.18;1.73;;;;;;;6.74;49.48;101228.69;6216343;23;20032;-92
2022/01/18 10:43:07;;;;;;;5.07;2.25;;;;;;;6.79;49.41;101225.50;6216738;23;20012;-92
2022/01/18 10:46:17;;;;;;;5.53;1.80;;;;;;;6.91;49.27;101220.91;6132011;23;20013;-92
2022/01/18 10:48:48;;;;;;;6.93;1.60;;;;;;;6.74;48.43;101205.03;6156570;23;20021;-91
2022/01/18 10:51:30;;;;;;;9.65;1.98;;;;;;;6.37;48.09;101179.00;6157021;23;20488;-91
2022/01/18 10:54:03;;;;;;;5.95;2.80;;;;;;;6.50;48.01;101176.16;6156529;23;20028;-92
2022/01/18 10:56:41;;;;;;;6.35;2.20;;;;;;;6.34;48.16;101159.47;6156097;23;20018;-92
2022/01/18 10:59:23;;;;;;;5.47;1.90;;;;;;;6.30;48.85;101162.69;6156000;23;20041;-92
2022/01/18 11:02:18;;;;;;;4.93;1.85;;;;;;;6.82;47.87;101231.53;6156178;23;20045;-92
2022/01/18 11:04:51;;;;;;;6.82;1.92;;;;;;;6.61;48.35;101170.69;6156165;23;20045;-92
2022/01/18 11:07:25;;;;;;;9.10;1.92;;;;;;;7.19;48.52;101229.63;6131812;23;20477;-92
2022/01/18 11:10:04;;;;;;;7.35;1.98;;;;;;;7.29;47.55;101216.44;6166511;23;20067;-92
2022/01/18 11:12:52;;;;;;;7.80;2.10;;;;;;;7.06;47.70;101203.69;6218136;23;20341;-92
2022/01/18 11:15:27;;;;;;;3.60;1.30;;;;;;;6.80;47.56;101171.38;6191824;23;20017;-93
2022/01/18 11:18:06;;;;;;;8.77;2.08;;;;;;;7.06;47.33;101231.63;6218178;23;20020;-93
2022/01/18 11:20:50;;;;;;;7.72;2.20;;;;;;;7.02;47.97;101219.63;6167132;23;20044;-92
2022/01/18 11:23:25;;;;;;;9.32;1.98;;;;;;;6.77;47.24;101186.53;6217923;23;20020;-92
2022/01/18 11:26:02;;;;;;;6.95;1.88;;;;;;;6.86;47.76;101199.56;6218216;23;20016;-92
2022/01/18 11:28:37;;;;;;;5.97;2.03;;;;;;;7.03;47.69;101234.06;6217595;23;20043;-92
2022/01/18 11:31:12;;;;;;;10.45;2.03;;;;;;;6.80;47.79;101206.91;6118001;23;20020;-92
2022/01/18 11:33:55;;;;;;;8.95;2.08;;;;;;;6.90;47.87;101230.19;6143214;23;20016;-93
2022/01/18 11:36:43;;;;;;;;;;;;;;;;;;;;;
2022/01/18 11:39:42;;;;;;;6.05;1.55;;;;;;;6.98;47.69;101202.56;6173394;23;20016;-91
2022/01/18 11:45:39;;;;;;;6.00;2.05;;;;;;;7.24;47.42;101243.38;6213124;23;20036;-94
2022/01/18 11:48:25;;;;;;;12.95;2.42;;;;;;;7.23;47.50;101240.75;6194631;23;20096;-93
2022/01/18 11:51:08;;;;;;;5.10;2.00;;;;;;;7.41;47.20;101249.06;6217999;23;20442;-94
2022/01/18 11:53:43;;;;;;;6.55;1.98;;;;;;;7.36;47.77;101227.72;6216541;23;20020;-94
2022/01/18 11:56:27;;;;;;;7.82;2.03;;;;;;;7.30;46.95;101238.50;6190983;23;20017;-94
2022/01/18 11:59:15;;;;;;;8.95;2.05;;;;;;;7.22;47.11;101198.41;6191107;23;20084;-91
2022/01/18 12:01:55;;;;;;;5.35;1.77;;;;;;;7.73;47.27;101237.50;6217443;23;20437;-93
2022/01/18 12:05:13;;;;;;;5.70;2.38;;;;;;;7.90;46.43;101260.19;6218132;23;20017;-92
2022/01/18 12:08:04;;;;;;;6.95;1.90;;;;;;;7.61;46.53;101244.69;6155516;23;20116;-92
2022/01/18 12:10:47;;;;;;;4.10;1.65;;;;;;;7.76;46.01;101265.56;6211555;23;20017;-92
2022/01/18 12:13:38;;;;;;;7.18;2.20;;;;;;;7.95;46.31;101262.88;6217311;23;20445;-91
2022/01/18 12:16:30;;;;;;;8.23;2.00;;;;;;;7.96;45.97;101255.31;6191270;23;20083;-94
2022/01/18 12:19:09;;;;;;;7.22;2.38;;;;;;;8.01;45.93;101261.41;6217505;23;20032;-92
2022/01/18 12:21:46;;;;;;;6.28;1.85;;;;;;;7.82;45.75;101269.19;6216385;23;20101;-90
2022/01/18 12:24:21;;;;;;;5.70;1.90;;;;;;;7.87;46.63;101257.50;6190599;23;20013;-92
2022/01/18 12:27:00;;;;;;;6.88;2.35;;;;;;;7.86;46.14;101244.75;6216191;23;20013;-95
2022/01/18 12:29:48;;;;;;;5.47;2.17;;;;;;;7.71;45.69;101217.13;6215544;23;20036;-93
2022/01/18 12:32:56;;;;;;;8.18;2.53;;;;;;;7.99;45.76;101218.97;6216865;23;20020;-91
2022/01/18 12:35:30;;;;;;;4.22;1.80;;;;;;;8.02;44.78;101199.59;6216923;23;20024;-93
2022/01/18 12:38:10;;;;;;;6.93;1.98;;;;;;;8.65;44.39;101245.78;6218074;23;20066;-92
2022/01/18 12:40:47;;;;;;;5.50;2.25;;;;;;;8.96;43.91;101253.56;6216876;23;20020;-91
2022/01/18 12:46:58;;;;;;;6.20;2.47;;;;;;;9.15;42.56;101235.50;6180687;23;20075;-96
2022/01/18 12:49:42;;;;;;;7.00;2.45;;;;;;;9.53;42.99;101245.91;6216514;23;20437;-96
2022/01/18 12:52:22;;;;;;;7.47;2.40;;;;;;;9.47;42.84;101253.41;6214889;23;20023;-94
2022/01/18 12:54:55;;;;;;;7.10;2.33;;;;;;;9.24;42.73;101225.56;6217776;23;20051;-95
2022/01/18 12:57:31;;;;;;;7.85;2.70;;;;;;;8.75;43.02;101222.38;6190959;23;20113;-91
2022/01/18 13:00:15;;;;;;;8.93;2.90;;;;;;;8.35;43.60;101237.19;6189505;23;20021;-90
2022/01/18 13:02:51;;;;;;;6.72;2.20;;;;;;;8.07;44.58;101231.13;6199681;22;20052;-93
2022/01/18 13:08:20;;;;;;;6.35;2.60;;;;;;;7.56;45.21;101195.41;6190432;23;20020;-92
2022/01/18 13:10:52;;;;;;;6.50;2.47;;;;;;;7.33;46.12;101219.97;6191245;23;20337;-92
2022/01/18 13:13:36;;;;;;;4.95;2.33;;;;;;;7.32;47.00;101244.50;6216860;23;20013;-93
2022/01/18 13:27:38;;;;;;;8.25;2.60;;;;;;;6.45;48.13;101203.00;6217655;23;20028;-93
2022/01/18 13:33:14;;;;;;;7.35;2.60;;;;;;;6.50;48.94;101250.56;6190574;23;20036;-93
2022/01/18 13:36:15;;;;;;;6.25;2.65;;;;;;;6.14;49.74;101230.44;6216299;23;20023;-92
2022/01/18 13:38:47;;;;;;;7.32;3.72;;;;;;;6.17;50.41;101256.75;6216320;23;20021;-93
2022/01/18 13:41:19;;;;;;;12.27;4.18;;;;;;;6.08;50.41;101239.53;6190417;23;20020;-93
2022/01/18 13:44:12;;;;;;;8.25;2.97;;;;;;;5.78;50.71;101229.72;6190348;23;20441;-91
2022/01/18 13:46:44;;;;;;;6.82;2.83;;;;;;;5.82;50.98;101269.56;6165305;23;20021;-90
2022/01/18 13:49:14;;;;;;;8.60;3.72;;;;;;;5.60;51.15;101264.34;6216943;23;20099;-91
2022/01/18 13:52:03;;;;;;;14.35;4.47;;;;;;;5.51;52.03;101263.94;6217352;23;20017;-90
2022/01/18 13:58:25;;;;;;;10.50;4.70;;;;;;;5.14;52.70;101267.34;6160560;23;20438;-89
2022/01/18 14:01:07;;;;;;;7.95;4.00;;;;;;;4.97;52.78;101247.97;6155059;23;20021;-89
2022/01/18 14:03:45;;;;;;;9.68;3.65;;;;;;;5.12;52.83;101274.00;6156352;23;20315;-91
2022/01/18 14:06:17;;;;;;;7.70;3.53;;;;;;;4.82;52.68;101237.16;6156858;23;20032;-87
2022/01/18 14:08:52;;;;;;;7.07;2.85;;;;;;;4.94;53.73;101278.22;6155573;23;20500;-92
2022/01/18 14:11:29;;;;;;;8.90;2.45;;;;;;;5.01;54.03;101286.94;6156537;23;20029;-92
2022/01/18 14:14:01;;;;;;;12.18;3.70;;;;;;;4.78;54.11;101263.06;6156528;23;20022;-95
2022/01/18 14:16:36;;;;;;;11.60;3.80;;;;;;;4.96;54.81;101296.84;6154526;23;20033;-89
2022/01/18 14:19:11;;;;;;;9.00;4.13;;;;;;;4.74;54.94;101274.72;6158487;23;20406;-90
2022/01/18 14:21:47;;;;;;;17.63;4.93;;;;;;;4.46;55.46;101232.88;6134054;23;20021;-96
2022/01/18 14:24:21;;;;;;;12.20;4.18;;;;;;;4.78;55.33;101301.00;6159318;23;20092;-91
2022/01/18 14:27:02;;;;;;;8.82;3.72;;;;;;;4.68;55.57;101288.72;6132721;23;20092;-90
2022/01/18 14:29:52;;;;;;;10.23;2.75;;;;;;;4.67;55.53;101302.16;6158501;23;20021;-90
2022/01/18 14:32:52;;;;;;;9.88;3.33;;;;;;;4.52;55.93;101281.19;6132677;23;20021;-92
2022/01/18 14:35:28;;;;;;;12.60;4.13;;;;;;;4.51;55.83;101287.91;6132618;23;20417;-93
2022/01/18 14:38:03;;;;;;;9.13;4.35;;;;;;;4.23;56.09;101251.06;6182345;23;20029;-93
2022/01/18 14:40:39;;;;;;;10.50;4.65;;;;;;;4.44;56.64;101303.56;6156998;23;20096;-92
2022/01/18 14:43:27;;;;;;;10.88;3.47;;;;;;;4.38;56.07;101297.34;6182308;23;20402;-94
2022/01/18 14:46:06;;;;;;;11.30;3.85;;;;;;;4.32;56.40;101302.94;6182130;23;20022;-95
2022/01/18 14:48:40;;;;;;;9.63;4.28;;;;;;;4.23;56.68;101297.44;6108856;23;20017;-94
2022/01/18 14:51:29;;;;;;;11.60;4.00;;;;;;;4.03;57.15;101265.25;6181511;22;20384;-94
2022/01/18 14:54:07;;;;;;;11.18;4.40;;;;;;;3.80;57.31;101240.47;6219755;23;20099;-93
2022/01/18 14:56:54;;;;;;;15.93;4.38;;;;;;;3.88;57.60;101262.81;6200753;23;20020;-91
2022/01/18 14:59:32;;;;;;;11.90;4.45;;;;;;;3.95;57.60;101271.56;6178313;23;20024;-93
2022/01/18 15:02:03;;;;;;;13.07;4.10;;;;;;;4.04;57.72;101305.75;6218979;23;20027;-93
2022/01/18 15:04:34;;;;;;;13.82;6.18;;;;;;;3.71;57.91;101271.19;6192941;23;20441;-93
2022/01/18 15:07:14;;;;;;;14.25;6.22;;;;;;;3.77;57.98;101305.97;6218903;23;20024;-91
2022/01/18 15:09:44;;;;;;;10.30;4.85;;;;;;;3.60;58.84;101289.09;6192715;23;20021;-93
2022/01/18 15:12:17;;;;;;;9.73;3.58;;;;;;;3.52;58.49;101286.16;6192820;23;20021;-93
2022/01/18 15:15:40;;;;;;;11.20;5.55;;;;;;;3.64;59.26;101337.28;6146032;23;20024;-94
2022/01/18 15:18:15;;;;;;;10.32;4.88;;;;;;;3.26;59.10;101276.31;6225314;23;20020;-93
2022/01/18 15:20:48;;;;;;;8.27;4.68;;;;;;;3.33;59.44;101296.06;6224203;23;20336;-93
2022/01/18 15:23:41;;;;;;;11.13;4.63;;;;;;;3.23;59.35;101277.03;6225338;23;20020;-92
2022/01/18 15:26:12;;;;;;;10.05;4.00;;;;;;;3.16;60.04;101301.84;6224202;23;20013;-91
2022/01/18 15:28:46;;;;;;;10.65;5.05;;;;;;;3.13;60.47;101301.66;6168894;23;20024;-95
2022/01/18 15:31:19;;;;;;;15.25;5.82;;;;;;;3.29;59.81;101329.44;6217824;23;20028;-92
2022/01/18 15:33:54;;;;;;;11.88;4.75;;;;;;;2.96;60.72;101284.72;6194455;23;20040;-93
2022/01/18 15:36:25;;;;;;;9.05;4.63;;;;;;;2.87;60.52;101319.53;6229274;23;20021;-91
2022/01/18 15:39:08;;;;;;;10.60;3.40;;;;;;;2.79;61.48;101345.94;6230067;23;20048;-89
2022/01/18 15:58:05;;;;;;;5.63;3.10;;;;;;;2.24;63.43;101350.31;6260919;23;20092;-90
2022/01/18 16:00:42;;;;;;;9.43;3.40;;;;;;;2.23;63.39;101338.50;6260205;23;20046;-90
2022/01/18 16:03:15;;;;;;;12.10;3.97;;;;;;;2.52;63.51;101358.69;6259727;23;20026;-89
2022/01/18 16:05:49;;;;;;;10.02;4.93;;;;;;;2.27;63.32;101306.81;6263878;23;20020;-90
2022/01/18 16:08:19;;;;;;;10.32;4.68;;;;;;;2.65;63.47;101358.66;6260868;23;20163;-91
2022/01/18 16:10:53;;;;;;;16.17;6.20;;;;;;;2.39;63.29;101308.41;6253909;23;20031;-91
2022/01/18 16:13:29;;;;;;;13.23;4.70;;;;;;;2.39;63.29;101313.44;6230167;23;20036;-90
2022/01/18 16:16:02;;;;;;;10.43;4.68;;;;;;;2.28;63.59;101299.34;6236683;23;20024;-90
2022/01/18 16:18:35;;;;;;;17.00;5.65;;;;;;;2.37;62.94;101312.47;6261805;23;20099;-89
2022/01/18 17:05:24;;;;;;;6.50;2.85;;;;;;;2.15;64.76;101412.75;6225740;22;20036;-92
